createdAt,value
2019-05-26T00:02:58.091Z,73.37
2019-05-26T00:07:02.985Z,73.40
2019-05-26T00:11:07.882Z,72.37
2019-05-26T00:15:12.959Z,72.46
2019-05-26T00:19:17.840Z,73.70
2019-05-26T00:23:22.736Z,75.25
2019-05-26T00:27:27.707Z,76.51
2019-05-26T00:31:32.699Z,77.32
2019-05-26T00:35:37.577Z,77.60
2019-05-26T00:39:42.462Z,76.57
2019-05-26T00:43:48.325Z,75.91
2019-05-26T00:47:53.218Z,74.37
2019-05-26T00:51:58.180Z,75.68
2019-05-26T00:56:03.078Z,76.46
2019-05-26T01:00:10.374Z,77.81
2019-05-26T01:04:15.268Z,78.75
2019-05-26T01:08:20.167Z,79.79
2019-05-26T01:12:25.064Z,79.35
2019-05-26T01:16:29.966Z,78.22
2019-05-26T01:20:34.926Z,77.60
2019-05-26T01:24:40.894Z,77.69
2019-05-26T01:28:45.793Z,77.65
2019-05-26T01:32:50.684Z,78.92
2019-05-26T01:36:55.963Z,79.46
2019-05-26T01:41:00.815Z,78.83
2019-05-26T01:45:07.924Z,77.82
2019-05-26T01:49:12.821Z,78.78
2019-05-26T01:53:17.723Z,79.43
2019-05-26T01:57:22.624Z,79.59
2019-05-26T02:01:27.511Z,79.36
2019-05-26T02:05:32.427Z,79.05
2019-05-26T02:09:37.308Z,78.82
2019-05-26T02:13:42.207Z,78.10
2019-05-26T02:17:47.106Z,77.35
2019-05-26T02:21:52.013Z,77.13
2019-05-26T02:25:56.908Z,77.01
2019-05-26T02:30:01.816Z,78.17
2019-05-26T02:34:06.785Z,77.79
2019-05-26T02:38:11.739Z,78.11
2019-05-26T02:42:16.618Z,79.35
2019-05-26T02:46:21.507Z,78.64
2019-05-26T02:50:26.637Z,79.39
2019-05-26T02:54:31.540Z,80.51
2019-05-26T02:58:36.430Z,80.54
2019-05-26T03:02:41.775Z,81.00
2019-05-26T03:06:47.595Z,81.35
2019-05-26T03:10:53.325Z,80.90
2019-05-26T03:15:00.549Z,80.62
2019-05-26T03:19:05.572Z,81.10
2019-05-26T03:23:10.723Z,81.74
2019-05-26T03:27:15.618Z,82.16
2019-05-26T03:31:21.587Z,82.02
2019-05-26T03:35:26.477Z,80.84
2019-05-26T03:39:43.398Z,79.99
2019-05-26T03:43:37.971Z,79.34
2019-05-26T03:47:42.867Z,78.34
2019-05-26T03:51:47.751Z,78.73
2019-05-26T03:55:52.636Z,78.93
2019-05-26T03:59:57.524Z,79.43
2019-05-26T04:04:02.419Z,79.59
2019-05-26T04:08:07.308Z,80.06
2019-05-26T04:12:12.195Z,77.72
2019-05-26T04:16:17.097Z,69.90
2019-05-26T04:20:21.991Z,63.10
2019-05-26T04:24:26.889Z,59.05
2019-05-26T04:28:31.782Z,55.53
2019-05-26T04:32:37.643Z,52.64
2019-05-26T04:36:43.512Z,50.91
2019-05-26T04:40:48.409Z,51.75
2019-05-26T04:44:53.296Z,50.64
2019-05-26T04:48:58.464Z,47.28
2019-05-26T04:53:06.524Z,44.25
2019-05-26T04:57:10.022Z,41.64
2019-05-26T05:01:14.921Z,39.74
2019-05-26T05:05:19.811Z,38.43
2019-05-26T05:09:25.777Z,38.29
2019-05-26T05:13:30.686Z,36.89
2019-05-26T05:17:35.588Z,37.59
2019-05-26T05:21:40.490Z,38.73
2019-05-26T05:25:45.373Z,37.19
2019-05-26T05:29:50.276Z,34.70
2019-05-26T05:33:55.168Z,32.80
2019-05-26T05:38:00.084Z,31.59
2019-05-26T05:42:05.038Z,31.87
2019-05-26T05:46:10.992Z,31.68
2019-05-26T05:50:17.531Z,29.83
2019-05-26T05:54:22.701Z,29.48
2019-05-26T05:58:27.597Z,28.08
2019-05-26T06:02:32.499Z,28.26
2019-05-26T06:06:37.385Z,28.84
2019-05-26T06:10:42.284Z,29.11
2019-05-26T06:14:47.210Z,29.28
2019-05-26T06:18:52.114Z,28.88
2019-05-26T06:22:57.009Z,28.34
2019-05-26T06:27:01.896Z,26.35
2019-05-26T06:31:06.793Z,25.91
2019-05-26T06:35:12.132Z,26.53
2019-05-26T06:39:17.046Z,26.03
2019-05-26T06:43:21.945Z,26.59
2019-05-26T06:47:26.832Z,26.83
2019-05-26T06:51:31.728Z,26.30
2019-05-26T06:55:36.631Z,25.51
2019-05-26T06:59:41.522Z,25.23
2019-05-26T07:03:46.429Z,25.67
2019-05-26T07:07:51.317Z,27.02
2019-05-26T07:12:00.134Z,27.73
2019-05-26T07:16:02.826Z,31.47
2019-05-26T07:20:08.198Z,33.49
2019-05-26T07:24:13.099Z,35.19
2019-05-26T07:28:17.984Z,35.99
2019-05-26T07:32:22.887Z,36.75
2019-05-26T07:36:27.789Z,36.77
2019-05-26T07:40:32.699Z,37.63
2019-05-26T07:44:37.602Z,37.78
2019-05-26T07:48:42.491Z,38.08
2019-05-26T07:52:47.398Z,40.21
2019-05-26T07:56:52.338Z,39.22
2019-05-26T08:00:57.246Z,38.46
2019-05-26T08:05:02.141Z,38.32
2019-05-26T08:09:08.582Z,38.79
2019-05-26T08:13:13.473Z,38.63
2019-05-26T08:17:18.368Z,39.27
2019-05-26T08:21:23.270Z,39.15
2019-05-26T08:25:28.172Z,39.18
2019-05-26T08:29:33.069Z,38.54
2019-05-26T08:33:37.960Z,38.84
2019-05-26T08:37:42.871Z,39.07
2019-05-26T08:41:47.763Z,39.85
2019-05-26T08:45:52.673Z,41.18
2019-05-26T08:49:57.577Z,40.51
2019-05-26T08:54:02.475Z,39.84
2019-05-26T08:58:07.376Z,40.38
2019-05-26T09:02:12.280Z,40.13
2019-05-26T09:06:17.181Z,40.87
2019-05-26T09:10:22.079Z,41.25
2019-05-26T09:14:26.961Z,41.98
2019-05-26T09:18:31.873Z,41.33
2019-05-26T09:22:36.785Z,41.14
2019-05-26T09:26:41.687Z,40.25
2019-05-26T09:30:46.656Z,40.96
2019-05-26T09:34:51.553Z,40.79
2019-05-26T09:38:56.463Z,40.58
2019-05-26T09:43:15.133Z,40.11
2019-05-26T09:47:07.961Z,40.18
2019-05-26T09:51:12.869Z,40.53
2019-05-26T09:55:18.100Z,39.43
2019-05-26T09:59:23.002Z,39.04
2019-05-26T10:03:27.910Z,39.39
2019-05-26T10:07:32.812Z,40.09
2019-05-26T10:11:37.725Z,39.43
2019-05-26T10:15:42.620Z,38.93
2019-05-26T10:19:48.497Z,39.15
2019-05-26T10:23:53.441Z,37.57
2019-05-26T10:27:58.291Z,38.11
2019-05-26T10:32:03.195Z,39.59
2019-05-26T10:36:08.095Z,39.81
2019-05-26T10:40:14.029Z,40.17
2019-05-26T10:44:18.924Z,40.35
2019-05-26T10:48:23.830Z,39.35
2019-05-26T10:52:28.729Z,39.05
2019-05-26T10:56:33.623Z,38.84
2019-05-26T11:00:38.541Z,36.08
2019-05-26T11:04:43.436Z,38.46
2019-05-26T11:08:48.345Z,37.41
2019-05-26T11:12:53.245Z,37.82
2019-05-26T11:16:58.145Z,37.28
2019-05-26T11:21:03.114Z,35.99
2019-05-26T11:25:08.954Z,38.75
2019-05-26T11:29:13.854Z,38.17
2019-05-26T11:33:18.775Z,37.82
2019-05-26T11:37:23.643Z,36.96
2019-05-26T11:41:28.672Z,38.39
2019-05-26T11:45:33.626Z,37.60
2019-05-26T11:49:38.530Z,38.30
2019-05-26T11:53:43.442Z,36.34
2019-05-26T11:57:48.331Z,37.28
2019-05-26T12:01:53.240Z,37.80
2019-05-26T12:05:58.152Z,36.04
2019-05-26T12:10:03.725Z,36.14
2019-05-26T12:14:08.623Z,36.39
2019-05-26T12:18:13.513Z,37.61
2019-05-26T12:22:18.409Z,38.19
2019-05-26T12:26:23.316Z,37.95
2019-05-26T12:30:28.223Z,37.29
2019-05-26T12:34:33.123Z,35.68
2019-05-26T12:38:39.672Z,35.11
2019-05-26T12:42:44.561Z,35.65
2019-05-26T12:46:49.458Z,36.28
2019-05-26T12:50:54.364Z,36.08
2019-05-26T12:54:59.269Z,35.34
2019-05-26T12:59:04.807Z,35.44
2019-05-26T13:03:09.714Z,36.28
2019-05-26T13:07:14.618Z,34.61
2019-05-26T13:11:22.790Z,37.51
2019-05-26T13:15:26.903Z,35.62
2019-05-26T13:19:31.817Z,35.70
2019-05-26T13:23:36.716Z,35.34
2019-05-26T13:27:41.622Z,35.97
2019-05-26T13:31:46.523Z,35.78
2019-05-26T13:35:51.424Z,34.57
2019-05-26T13:39:56.318Z,34.71
2019-05-26T13:44:01.256Z,34.85
2019-05-26T13:48:06.211Z,34.10
2019-05-26T13:52:11.115Z,34.43
2019-05-26T13:56:16.020Z,33.89
2019-05-26T14:00:21.969Z,31.86
2019-05-26T14:04:26.860Z,31.54
2019-05-26T14:08:31.763Z,32.85
2019-05-26T14:12:36.739Z,32.55
2019-05-26T14:16:43.420Z,32.54
2019-05-26T14:20:48.326Z,32.28
2019-05-26T14:24:54.419Z,31.46
2019-05-26T14:29:00.454Z,31.33
2019-05-26T14:33:05.903Z,32.61
2019-05-26T14:37:10.801Z,33.53
2019-05-26T14:41:15.698Z,32.73
2019-05-26T14:45:21.031Z,32.21
2019-05-26T14:49:25.924Z,32.27
2019-05-26T14:53:30.824Z,32.71
2019-05-26T14:57:36.158Z,33.15
2019-05-26T15:01:41.063Z,33.52
2019-05-26T15:05:45.950Z,33.10
2019-05-26T15:09:50.853Z,33.29
2019-05-26T15:13:55.751Z,33.34
2019-05-26T15:18:00.653Z,33.12
2019-05-26T15:22:05.622Z,33.10
2019-05-26T15:26:10.523Z,34.12
2019-05-26T15:30:17.266Z,34.03
2019-05-26T15:34:22.163Z,33.80
2019-05-26T15:38:40.099Z,33.86
2019-05-26T15:42:33.644Z,33.65
2019-05-26T15:46:38.552Z,33.99
2019-05-26T15:50:43.464Z,33.45
2019-05-26T15:54:48.355Z,33.52
2019-05-26T15:58:53.275Z,34.70
2019-05-26T16:02:58.180Z,35.28
2019-05-26T16:07:03.079Z,35.51
2019-05-26T16:11:08.041Z,35.71
2019-05-26T16:15:13.738Z,35.27
2019-05-26T16:19:18.644Z,35.38
2019-05-26T16:23:23.549Z,35.45
2019-05-26T16:27:28.512Z,35.35
2019-05-26T16:31:33.414Z,35.30
2019-05-26T16:35:38.306Z,35.68
2019-05-26T16:39:43.248Z,36.49
2019-05-26T16:43:48.156Z,37.26
2019-05-26T16:47:53.044Z,37.48
2019-05-26T16:51:57.939Z,37.94
2019-05-26T16:56:02.848Z,38.03
2019-05-26T17:00:09.458Z,37.88
2019-05-26T17:04:14.359Z,37.97
2019-05-26T17:08:19.253Z,37.80
2019-05-26T17:12:24.152Z,37.66
2019-05-26T17:16:29.056Z,38.25
2019-05-26T17:20:33.968Z,38.08
2019-05-26T17:24:38.878Z,39.25
2019-05-26T17:28:43.772Z,39.62
2019-05-26T17:32:48.674Z,39.84
2019-05-26T17:36:53.660Z,39.79
2019-05-26T17:40:58.559Z,39.74
2019-05-26T17:45:05.014Z,40.01
2019-05-26T17:49:10.878Z,40.91
2019-05-26T17:53:15.854Z,41.07
2019-05-26T17:57:20.809Z,41.17
2019-05-26T18:01:25.665Z,40.74
2019-05-26T18:05:30.564Z,41.58
2019-05-26T18:09:43.735Z,41.52
2019-05-26T18:13:42.069Z,41.75
2019-05-26T18:17:47.920Z,41.85
2019-05-26T18:21:52.920Z,42.13
2019-05-26T18:25:58.892Z,42.47
2019-05-26T18:30:05.365Z,42.60
2019-05-26T18:34:10.280Z,43.58
2019-05-26T18:38:15.181Z,44.24
2019-05-26T18:42:20.089Z,44.56
2019-05-26T18:46:24.988Z,45.01
2019-05-26T18:50:29.876Z,45.06
2019-05-26T18:54:34.775Z,45.53
2019-05-26T18:58:39.671Z,45.19
2019-05-26T19:02:44.579Z,45.64
2019-05-26T19:06:49.480Z,45.67
2019-05-26T19:10:54.377Z,45.75
2019-05-26T19:14:59.276Z,45.76
2019-05-26T19:19:04.514Z,45.75
2019-05-26T19:23:10.386Z,45.82
2019-05-26T19:27:15.859Z,45.95
2019-05-26T19:31:20.744Z,46.17
2019-05-26T19:35:25.712Z,46.22
2019-05-26T19:39:30.686Z,46.54
2019-05-26T19:43:35.593Z,46.71
2019-05-26T19:47:40.493Z,46.90
2019-05-26T19:51:45.394Z,47.18
2019-05-26T19:55:50.366Z,47.13
2019-05-26T19:59:55.262Z,47.20
2019-05-26T20:04:00.163Z,48.52
2019-05-26T20:08:05.128Z,48.50
2019-05-26T20:12:10.098Z,48.02
2019-05-26T20:16:14.990Z,48.50
2019-05-26T20:20:20.150Z,48.04
2019-05-26T20:24:25.045Z,47.87
2019-05-26T20:28:29.943Z,47.94
2019-05-26T20:32:34.832Z,48.16
2019-05-26T20:36:39.731Z,48.34
2019-05-26T20:40:45.100Z,48.41
2019-05-26T20:44:50.015Z,48.40
2019-05-26T20:48:54.918Z,48.22
2019-05-26T20:52:59.853Z,48.39
2019-05-26T20:57:04.784Z,48.54
2019-05-26T21:01:09.705Z,48.63
2019-05-26T21:05:16.031Z,48.67
2019-05-26T21:09:20.944Z,48.92
2019-05-26T21:13:25.902Z,49.51
2019-05-26T21:17:30.796Z,49.53
2019-05-26T21:21:35.697Z,49.52
2019-05-26T21:25:40.598Z,49.82
2019-05-26T21:29:45.503Z,49.82
2019-05-26T21:33:50.391Z,50.00
2019-05-26T21:37:55.296Z,50.14
2019-05-26T21:42:00.190Z,50.47
2019-05-26T21:46:05.154Z,50.46
2019-05-26T21:50:10.402Z,51.00
2019-05-26T21:54:15.289Z,50.81
2019-05-26T21:58:21.256Z,50.83
2019-05-26T22:02:26.226Z,50.66
2019-05-26T22:06:31.208Z,50.77
2019-05-26T22:10:36.499Z,50.69
2019-05-26T22:14:41.405Z,50.82
2019-05-26T22:18:46.297Z,51.13
2019-05-26T22:22:51.193Z,51.51
2019-05-26T22:26:56.111Z,51.29
2019-05-26T22:31:00.996Z,51.38
2019-05-26T22:35:08.427Z,51.47
2019-05-26T22:39:13.320Z,52.11
2019-05-26T22:43:18.224Z,53.00
2019-05-26T22:47:23.129Z,52.45
2019-05-26T22:51:28.023Z,52.24
2019-05-26T22:55:32.926Z,52.04
2019-05-26T22:59:37.817Z,51.91
2019-05-26T23:03:42.713Z,51.99
2019-05-26T23:07:47.616Z,52.48
2019-05-26T23:11:52.512Z,52.90
2019-05-26T23:15:57.406Z,53.38
2019-05-26T23:20:02.389Z,53.68
2019-05-26T23:24:07.273Z,54.26
2019-05-26T23:28:13.307Z,54.79
2019-05-26T23:32:18.217Z,54.37
2019-05-26T23:36:23.119Z,54.26
2019-05-26T23:40:28.011Z,54.16
2019-05-26T23:44:32.922Z,54.33
2019-05-26T23:48:37.887Z,54.41
2019-05-26T23:52:42.781Z,55.25
2019-05-26T23:56:47.680Z,55.09
